createdAt,value
2022-12-29T00:00:00.648Z,7.4
2022-12-29T00:05:00.604Z,6.1
2022-12-29T00:10:00.641Z,5.2
2022-12-29T00:15:00.724Z,6.0
2022-12-29T00:20:00.605Z,7.7
2022-12-29T00:25:00.621Z,6.2
2022-12-29T00:30:00.616Z,6.7
2022-12-29T00:35:00.625Z,6.7
2022-12-29T00:40:00.754Z,10.8
2022-12-29T00:45:00.642Z,5.7
2022-12-29T00:50:00.655Z,7.6
2022-12-29T00:55:00.660Z,6.9
2022-12-29T01:00:01.776Z,7.9
2022-12-29T01:05:01.335Z,5.7
2022-12-29T01:10:00.652Z,11.6
2022-12-29T01:15:00.676Z,6.9
2022-12-29T01:20:00.787Z,11.2
2022-12-29T01:25:00.660Z,9.3
2022-12-29T01:30:00.642Z,7.2
2022-12-29T01:35:00.642Z,9.5
2022-12-29T01:40:00.685Z,4.9
2022-12-29T01:45:00.626Z,5.9
2022-12-29T01:50:00.660Z,5.6
2022-12-29T01:55:00.642Z,8.7
2022-12-29T02:00:00.643Z,6.4
2022-12-29T02:05:05.031Z,7.3
2022-12-29T02:10:00.646Z,8.8
2022-12-29T02:15:00.619Z,6.1
2022-12-29T02:20:00.672Z,6.3
2022-12-29T02:25:00.710Z,8.1
2022-12-29T02:30:00.668Z,8.7
2022-12-29T02:35:00.651Z,8.1
2022-12-29T02:40:00.669Z,3.6
2022-12-29T02:45:00.605Z,5.9
2022-12-29T02:50:00.634Z,4.8
2022-12-29T02:55:00.606Z,9.3
2022-12-29T03:00:00.617Z,5.7
2022-12-29T03:05:00.656Z,8.1
2022-12-29T03:10:00.638Z,8.2
2022-12-29T03:15:01.043Z,5.6
2022-12-29T03:20:00.876Z,7.1
2022-12-29T03:25:00.659Z,5.4
2022-12-29T03:30:00.689Z,5.1
2022-12-29T03:35:00.616Z,7.4
2022-12-29T03:40:00.643Z,5.7
2022-12-29T03:45:00.601Z,7.6
2022-12-29T03:50:00.696Z,8.6
2022-12-29T03:55:00.626Z,10.1
2022-12-29T04:00:07.817Z,8.1
2022-12-29T04:05:00.705Z,6.7
2022-12-29T04:10:00.682Z,6.0
2022-12-29T04:15:00.657Z,7.6
2022-12-29T04:20:00.627Z,9.1
2022-12-29T04:25:00.640Z,6.9
2022-12-29T04:30:00.646Z,8.0
2022-12-29T04:35:00.631Z,9.4
2022-12-29T04:40:00.638Z,8.8
2022-12-29T04:45:00.646Z,6.8
2022-12-29T04:50:00.631Z,8.3
2022-12-29T04:55:00.626Z,6.6
2022-12-29T05:00:00.697Z,7.1
2022-12-29T05:05:00.620Z,5.8
2022-12-29T05:10:00.669Z,9.7
2022-12-29T05:15:00.616Z,9.3
2022-12-29T05:20:00.640Z,6.6
2022-12-29T05:25:00.652Z,8.1
2022-12-29T05:30:00.630Z,6.2
2022-12-29T05:35:00.611Z,10.2
2022-12-29T05:40:00.645Z,8.4
2022-12-29T05:45:00.681Z,7.7
2022-12-29T05:50:00.604Z,7.4
2022-12-29T05:55:00.641Z,12.4
2022-12-29T06:00:00.627Z,9.3
2022-12-29T06:05:00.807Z,10.3
2022-12-29T06:10:00.617Z,9.7
2022-12-29T06:15:00.602Z,5.5
2022-12-29T06:20:00.761Z,7.5
2022-12-29T06:25:05.623Z,11.9
2022-12-29T06:30:00.714Z,8.8
2022-12-29T06:35:00.665Z,9.8
2022-12-29T06:40:00.634Z,10.6
2022-12-29T06:45:00.782Z,11.9
2022-12-29T06:50:00.615Z,10.5
2022-12-29T06:55:00.639Z,9.4
2022-12-29T07:00:00.668Z,9.3
2022-12-29T07:05:00.617Z,10.4
2022-12-29T07:10:00.664Z,12.5
2022-12-29T07:15:00.625Z,9.7
2022-12-29T07:20:00.613Z,9.5
2022-12-29T07:25:00.608Z,7.3
2022-12-29T07:30:00.655Z,9.9
2022-12-29T07:35:00.627Z,8.2
2022-12-29T07:40:00.664Z,7.2
2022-12-29T07:45:00.621Z,7.4
2022-12-29T07:50:00.640Z,5.5
2022-12-29T07:55:00.644Z,10.3
2022-12-29T08:00:00.645Z,11.3
2022-12-29T08:05:00.611Z,9.6
2022-12-29T08:10:00.655Z,11.9
2022-12-29T08:15:00.637Z,10.5
2022-12-29T08:20:00.670Z,6.6
2022-12-29T08:25:00.643Z,8.7
2022-12-29T08:30:00.658Z,9.4
2022-12-29T08:35:00.667Z,7.0
2022-12-29T08:40:00.659Z,11.7
2022-12-29T08:45:00.680Z,10.5
2022-12-29T08:50:00.655Z,9.6
2022-12-29T08:55:00.650Z,10.0
2022-12-29T09:00:00.665Z,8.6
2022-12-29T09:05:00.910Z,10.2
2022-12-29T09:10:00.656Z,11.1
2022-12-29T09:15:00.614Z,13.0
2022-12-29T09:20:00.635Z,10.9
2022-12-29T09:25:00.629Z,10.3
2022-12-29T09:30:00.680Z,11.7
2022-12-29T09:35:00.623Z,12.0
2022-12-29T09:40:00.650Z,12.1
2022-12-29T09:45:00.661Z,11.8
2022-12-29T09:50:00.900Z,14.2
2022-12-29T09:55:12.099Z,12.4
2022-12-29T10:00:00.737Z,15.3
2022-12-29T10:05:00.634Z,12.6
2022-12-29T10:10:00.650Z,9.8
2022-12-29T10:15:00.650Z,13.8
2022-12-29T10:20:00.644Z,13.4
2022-12-29T10:25:00.632Z,14.3
2022-12-29T10:30:00.647Z,13.2
2022-12-29T10:35:00.608Z,17.9
2022-12-29T10:40:00.648Z,14.8
2022-12-29T10:45:00.652Z,13.7
2022-12-29T10:50:00.859Z,11.0
2022-12-29T10:55:00.722Z,11.7
2022-12-29T11:00:00.671Z,12.0
2022-12-29T11:05:00.642Z,10.5
2022-12-29T11:10:00.659Z,11.9
2022-12-29T11:15:00.692Z,11.0
2022-12-29T11:20:00.716Z,10.8
2022-12-29T11:25:00.637Z,11.5
2022-12-29T11:30:00.655Z,9.9
2022-12-29T11:35:00.666Z,10.5
2022-12-29T11:40:00.699Z,13.8
2022-12-29T11:45:00.639Z,15.0
2022-12-29T11:50:00.662Z,14.6
2022-12-29T11:55:00.639Z,11.7
2022-12-29T12:00:00.650Z,12.5
2022-12-29T12:05:00.648Z,14.5
2022-12-29T12:10:07.952Z,14.3
2022-12-29T12:15:00.695Z,10.5
2022-12-29T12:20:00.655Z,10.9
2022-12-29T12:25:00.648Z,12.0
2022-12-29T12:30:00.653Z,11.2
2022-12-29T12:35:00.653Z,12.6
2022-12-29T12:40:00.661Z,12.5
2022-12-29T12:45:00.644Z,10.4
2022-12-29T12:50:00.943Z,10.6
2022-12-29T12:55:00.637Z,12.2
2022-12-29T13:00:00.798Z,9.6
2022-12-29T13:05:00.612Z,10.3
2022-12-29T13:10:00.654Z,12.2
2022-12-29T13:15:00.640Z,12.4
2022-12-29T13:20:00.667Z,9.7
2022-12-29T13:25:00.638Z,5.6
2022-12-29T13:30:00.785Z,10.2
2022-12-29T13:35:00.626Z,13.3
2022-12-29T13:40:00.746Z,10.9
2022-12-29T13:45:00.626Z,9.7
2022-12-29T13:50:00.734Z,9.6
2022-12-29T13:55:00.677Z,9.8
2022-12-29T14:00:00.797Z,6.7
2022-12-29T14:05:00.632Z,7.1
2022-12-29T14:10:00.805Z,8.4
2022-12-29T14:15:00.670Z,9.6
2022-12-29T14:20:00.669Z,7.9
2022-12-29T14:25:00.633Z,5.2
2022-12-29T14:30:00.673Z,5.6
2022-12-29T14:35:00.649Z,7.7
2022-12-29T14:40:00.699Z,8.2
2022-12-29T14:45:00.626Z,7.8
2022-12-29T14:50:00.647Z,10.1
2022-12-29T14:55:00.657Z,16.9
2022-12-29T15:00:00.637Z,11.8
2022-12-29T15:05:00.633Z,9.6
2022-12-29T15:10:00.691Z,7.8
2022-12-29T15:15:00.692Z,10.2
2022-12-29T15:20:00.692Z,7.4
2022-12-29T15:25:00.626Z,8.0
2022-12-29T15:30:00.657Z,9.0
2022-12-29T15:35:00.621Z,6.1
2022-12-29T15:40:00.667Z,8.3
2022-12-29T15:45:11.523Z,5.0
2022-12-29T15:50:00.626Z,4.8
2022-12-29T15:55:00.637Z,4.7
2022-12-29T16:00:00.663Z,7.7
2022-12-29T16:05:17.468Z,9.0
2022-12-29T16:10:00.683Z,8.9
2022-12-29T16:15:00.654Z,9.9
2022-12-29T16:20:00.908Z,9.2
2022-12-29T16:25:05.349Z,9.3
2022-12-29T16:30:00.764Z,6.7
2022-12-29T16:35:00.634Z,8.3
2022-12-29T16:40:00.800Z,8.1
2022-12-29T16:45:00.699Z,6.5
2022-12-29T16:50:00.763Z,6.0
2022-12-29T16:55:00.647Z,6.9
2022-12-29T17:00:00.877Z,6.1
2022-12-29T17:05:00.658Z,5.5
2022-12-29T17:10:00.849Z,6.8
2022-12-29T17:15:00.655Z,6.4
2022-12-29T17:20:00.643Z,6.9
2022-12-29T17:25:00.708Z,8.1
2022-12-29T17:30:00.639Z,9.2
2022-12-29T17:35:00.628Z,8.8
2022-12-29T17:40:00.656Z,8.0
2022-12-29T17:45:00.629Z,8.9
2022-12-29T17:50:00.654Z,9.7
2022-12-29T17:55:00.599Z,11.9
2022-12-29T18:00:00.669Z,10.5
2022-12-29T18:05:00.629Z,5.8
2022-12-29T18:10:00.652Z,6.5
2022-12-29T18:15:00.637Z,7.5
2022-12-29T18:20:00.663Z,7.0
2022-12-29T18:25:00.660Z,5.9
2022-12-29T18:30:00.718Z,6.5
2022-12-29T18:35:00.648Z,5.0
2022-12-29T18:40:00.656Z,2.5
2022-12-29T18:45:00.646Z,6.2
2022-12-29T18:50:00.666Z,3.7
2022-12-29T18:55:00.610Z,4.5
2022-12-29T19:00:00.650Z,5.4
2022-12-29T19:05:08.475Z,5.4
2022-12-29T19:10:00.629Z,4.9
2022-12-29T19:15:00.626Z,9.6
2022-12-29T19:20:00.625Z,7.3
2022-12-29T19:25:00.716Z,8.4
2022-12-29T19:30:00.676Z,5.9
2022-12-29T19:35:00.604Z,3.0
2022-12-29T19:40:00.696Z,6.8
2022-12-29T19:45:00.619Z,5.5
2022-12-29T19:50:00.659Z,4.3
2022-12-29T19:55:00.651Z,6.3
2022-12-29T20:00:00.719Z,5.3
2022-12-29T20:05:00.603Z,6.0
2022-12-29T20:10:00.649Z,6.6
2022-12-29T20:15:00.608Z,2.7
2022-12-29T20:20:00.634Z,5.5
2022-12-29T20:25:43.521Z,4.2
2022-12-29T20:30:00.662Z,3.6
2022-12-29T20:35:00.610Z,2.9
2022-12-29T20:40:00.694Z,2.2
2022-12-29T20:45:00.619Z,3.8
2022-12-29T20:50:00.664Z,3.8
2022-12-29T20:55:00.645Z,4.1
2022-12-29T21:00:00.636Z,2.2
2022-12-29T21:05:23.528Z,0.7
2022-12-29T21:10:00.618Z,4.0
2022-12-29T21:15:00.615Z,1.1
2022-12-29T21:20:00.690Z,3.5
2022-12-29T21:25:00.694Z,2.5
2022-12-29T21:30:00.636Z,5.3
2022-12-29T21:35:00.668Z,3.4
2022-12-29T21:40:00.683Z,5.0
2022-12-29T21:45:00.630Z,2.5
2022-12-29T21:50:00.649Z,4.3
2022-12-29T21:55:00.703Z,5.6
2022-12-29T22:00:00.648Z,7.0
2022-12-29T22:05:00.672Z,6.5
2022-12-29T22:10:00.602Z,6.9
2022-12-29T22:15:00.683Z,9.8
2022-12-29T22:20:00.642Z,8.2
2022-12-29T22:25:00.653Z,8.5
2022-12-29T22:30:00.634Z,6.9
2022-12-29T22:35:08.211Z,8.7
2022-12-29T22:40:00.625Z,8.7
2022-12-29T22:45:00.708Z,7.4
2022-12-29T22:50:00.685Z,12.3
2022-12-29T22:55:07.300Z,8.7
2022-12-29T23:00:00.692Z,10.4
2022-12-29T23:05:04.939Z,13.4
2022-12-29T23:10:00.662Z,11.8
2022-12-29T23:15:00.648Z,11.7
2022-12-29T23:20:00.641Z,12.6
2022-12-29T23:25:00.637Z,12.8
2022-12-29T23:30:00.679Z,12.0
2022-12-29T23:35:00.631Z,14.4
2022-12-29T23:40:00.650Z,12.5
2022-12-29T23:45:00.660Z,10.9
2022-12-29T23:50:00.869Z,9.1
2022-12-29T23:55:00.603Z,7.5
